createdAt,value
2023-05-16T00:00:54.825Z,15.40
2023-05-16T00:03:40.636Z,15.20
2023-05-16T00:06:25.950Z,15.20
2023-05-16T00:09:11.663Z,15.00
2023-05-16T00:11:57.963Z,15.00
2023-05-16T00:14:43.664Z,15.00
2023-05-16T00:17:29.376Z,15.00
2023-05-16T00:20:17.354Z,14.90
2023-05-16T00:23:03.943Z,15.00
2023-05-16T00:25:49.408Z,14.90
2023-05-16T00:28:34.902Z,15.00
2023-05-16T00:31:20.883Z,14.90
2023-05-16T00:34:06.288Z,14.80
2023-05-16T00:36:51.989Z,14.90
2023-05-16T00:39:37.844Z,14.80
2023-05-16T00:42:23.285Z,14.80
2023-05-16T00:45:09.403Z,14.80
2023-05-16T00:47:55.261Z,14.90
2023-05-16T00:50:40.843Z,14.70
2023-05-16T00:53:26.836Z,14.80
2023-05-16T00:56:12.488Z,14.70
2023-05-16T00:58:58.174Z,14.50
2023-05-16T01:01:46.255Z,14.60
2023-05-16T01:04:32.375Z,14.60
2023-05-16T01:07:19.594Z,14.70
2023-05-16T01:10:06.021Z,14.70
2023-05-16T01:12:59.647Z,14.80
2023-05-16T01:15:54.204Z,14.70
2023-05-16T01:18:43.660Z,14.70
2023-05-16T01:22:05.544Z,14.70
2023-05-16T01:25:11.789Z,14.70
2023-05-16T01:27:58.721Z,14.60
2023-05-16T01:30:44.874Z,14.50
2023-05-16T01:33:30.457Z,14.40
2023-05-16T01:36:29.319Z,14.50
2023-05-16T01:39:41.256Z,14.60
2023-05-16T01:42:30.433Z,14.50
2023-05-16T01:45:23.107Z,14.60
2023-05-16T01:48:10.745Z,14.60
2023-05-16T01:50:57.977Z,14.70
2023-05-16T01:53:45.422Z,14.80
2023-05-16T01:56:32.118Z,14.90
2023-05-16T01:59:19.358Z,14.80
2023-05-16T02:02:05.108Z,14.90
2023-05-16T02:04:50.851Z,14.70
2023-05-16T02:07:36.617Z,14.60
2023-05-16T02:10:22.477Z,14.50
2023-05-16T02:13:07.764Z,14.50
2023-05-16T02:15:53.943Z,14.40
2023-05-16T02:18:39.785Z,14.40
2023-05-16T02:21:25.682Z,14.40
2023-05-16T02:24:11.111Z,14.30
2023-05-16T02:26:56.967Z,14.40
2023-05-16T02:29:42.662Z,14.30
2023-05-16T02:32:28.355Z,14.30
2023-05-16T02:35:13.998Z,14.40
2023-05-16T02:37:59.698Z,14.10
2023-05-16T02:40:45.432Z,14.10
2023-05-16T02:43:31.261Z,14.10
2023-05-16T02:46:25.468Z,13.90
2023-05-16T02:49:11.094Z,14.00
2023-05-16T02:51:57.912Z,14.10
2023-05-16T02:54:43.538Z,14.00
2023-05-16T02:57:29.012Z,14.00
2023-05-16T03:00:16.238Z,14.00
2023-05-16T03:03:04.453Z,13.90
2023-05-16T03:05:50.123Z,13.80
2023-05-16T03:08:36.117Z,13.80
2023-05-16T03:11:22.849Z,13.80
2023-05-16T03:14:08.503Z,13.70
2023-05-16T03:16:53.997Z,13.70
2023-05-16T03:19:39.594Z,13.80
2023-05-16T03:22:24.988Z,13.60
2023-05-16T03:25:10.626Z,13.60
2023-05-16T03:27:59.435Z,13.60
2023-05-16T03:30:45.177Z,13.60
2023-05-16T03:33:30.840Z,13.60
2023-05-16T03:36:21.370Z,13.50
2023-05-16T03:39:09.557Z,13.50
2023-05-16T03:41:58.441Z,13.60
2023-05-16T03:44:44.190Z,13.60
2023-05-16T03:47:31.945Z,13.50
2023-05-16T03:50:17.618Z,13.60
2023-05-16T03:53:03.760Z,13.40
2023-05-16T03:55:49.228Z,13.50
2023-05-16T03:58:34.896Z,13.50
2023-05-16T04:01:20.559Z,13.60
2023-05-16T04:04:06.246Z,13.60
2023-05-16T04:06:51.871Z,13.70
2023-05-16T04:09:37.574Z,13.60
2023-05-16T04:12:23.178Z,13.60
2023-05-16T04:15:08.611Z,13.50
2023-05-16T04:17:53.931Z,13.60
2023-05-16T04:20:39.714Z,13.50
2023-05-16T04:23:25.196Z,13.50
2023-05-16T04:26:10.955Z,13.60
2023-05-16T04:28:57.041Z,13.20
2023-05-16T04:31:42.657Z,13.50
2023-05-16T04:34:28.396Z,13.40
2023-05-16T04:37:14.204Z,13.50
2023-05-16T04:40:00.266Z,13.50
2023-05-16T04:42:45.648Z,13.40
2023-05-16T04:45:31.413Z,13.30
2023-05-16T04:48:17.196Z,13.20
2023-05-16T04:51:02.460Z,13.10
2023-05-16T04:53:48.055Z,13.30
2023-05-16T04:56:34.208Z,13.30
2023-05-16T04:59:19.635Z,13.30
2023-05-16T05:02:05.891Z,13.50
2023-05-16T05:04:51.451Z,13.60
2023-05-16T05:07:36.856Z,13.70
2023-05-16T05:10:22.569Z,13.70
2023-05-16T05:13:08.263Z,13.60
2023-05-16T05:15:53.676Z,13.30
2023-05-16T05:18:39.433Z,13.40
2023-05-16T05:21:25.532Z,13.30
2023-05-16T05:24:11.438Z,13.20
2023-05-16T05:26:57.087Z,13.10
2023-05-16T05:29:42.848Z,13.20
2023-05-16T05:32:28.162Z,13.10
2023-05-16T05:35:13.888Z,13.20
2023-05-16T05:37:59.598Z,13.20
2023-05-16T05:40:45.140Z,13.10
2023-05-16T05:43:30.925Z,13.10
2023-05-16T05:46:17.447Z,13.00
2023-05-16T05:49:03.282Z,13.20
2023-05-16T05:51:51.947Z,13.10
2023-05-16T05:54:37.241Z,13.20
2023-05-16T05:57:22.832Z,13.00
2023-05-16T06:00:09.927Z,13.10
2023-05-16T06:02:55.896Z,13.20
2023-05-16T06:05:41.990Z,13.40
2023-05-16T06:08:27.404Z,13.50
2023-05-16T06:11:12.970Z,13.60
2023-05-16T06:13:58.655Z,13.40
2023-05-16T06:16:44.849Z,13.60
2023-05-16T06:19:30.401Z,13.60
2023-05-16T06:22:16.112Z,13.70
2023-05-16T06:25:01.893Z,13.90
2023-05-16T06:27:47.678Z,13.90
2023-05-16T06:30:33.371Z,14.10
2023-05-16T06:33:19.243Z,14.20
2023-05-16T06:36:05.309Z,14.20
2023-05-16T06:38:51.072Z,14.10
2023-05-16T06:41:36.637Z,14.20
2023-05-16T06:44:23.208Z,14.00
2023-05-16T06:47:08.576Z,13.90
2023-05-16T06:49:54.414Z,13.80
2023-05-16T06:52:39.710Z,13.80
2023-05-16T06:55:25.634Z,14.10
2023-05-16T06:58:11.399Z,14.30
2023-05-16T07:00:57.026Z,14.50
2023-05-16T07:03:42.858Z,14.50
2023-05-16T07:06:28.468Z,12.10
2023-05-16T07:09:13.910Z,14.80
2023-05-16T07:11:59.504Z,14.90
2023-05-16T07:14:45.796Z,15.10
2023-05-16T07:17:31.467Z,15.10
2023-05-16T07:20:17.018Z,15.10
2023-05-16T07:23:02.794Z,15.10
2023-05-16T07:25:48.485Z,15.00
2023-05-16T07:28:33.902Z,15.00
2023-05-16T07:31:20.122Z,15.10
2023-05-16T07:34:06.595Z,15.20
2023-05-16T07:36:51.877Z,15.20
2023-05-16T07:39:37.740Z,15.20
2023-05-16T07:42:23.360Z,15.40
2023-05-16T07:45:09.027Z,15.40
2023-05-16T07:47:54.657Z,15.50
2023-05-16T07:50:40.070Z,15.60
2023-05-16T07:53:25.906Z,15.60
2023-05-16T07:56:11.319Z,15.50
2023-05-16T07:58:56.705Z,15.60
2023-05-16T08:01:42.239Z,15.70
2023-05-16T08:04:28.616Z,15.80
2023-05-16T08:07:14.000Z,15.90
2023-05-16T08:09:59.427Z,15.90
2023-05-16T08:12:45.045Z,15.90
2023-05-16T08:15:30.823Z,15.90
2023-05-16T08:18:16.491Z,16.00
2023-05-16T08:21:02.472Z,15.90
2023-05-16T08:23:48.086Z,16.00
2023-05-16T08:26:34.018Z,15.90
2023-05-16T08:29:19.372Z,16.00
2023-05-16T08:32:06.169Z,15.90
2023-05-16T08:34:51.862Z,16.00
2023-05-16T08:37:37.515Z,16.00
2023-05-16T08:40:26.162Z,16.20
2023-05-16T08:43:12.261Z,16.20
2023-05-16T08:45:57.748Z,16.30
2023-05-16T08:48:46.254Z,16.40
2023-05-16T08:51:35.462Z,16.50
2023-05-16T08:54:21.940Z,16.50
2023-05-16T08:57:09.150Z,16.60
2023-05-16T08:59:58.002Z,16.60
2023-05-16T09:02:45.180Z,16.50
2023-05-16T09:05:31.177Z,16.60
2023-05-16T09:08:16.806Z,16.40
2023-05-16T09:11:03.650Z,16.40
2023-05-16T09:13:49.218Z,16.50
2023-05-16T09:16:34.804Z,16.70
2023-05-16T09:19:23.162Z,16.80
2023-05-16T09:22:12.326Z,16.90
2023-05-16T09:24:59.925Z,16.80
2023-05-16T09:27:48.791Z,16.80
2023-05-16T09:30:35.080Z,16.70
2023-05-16T09:33:24.002Z,16.80
2023-05-16T09:36:09.444Z,16.90
2023-05-16T09:38:54.923Z,17.00
2023-05-16T09:41:41.118Z,17.00
2023-05-16T09:44:26.521Z,17.10
2023-05-16T09:47:14.268Z,17.20
2023-05-16T09:50:00.604Z,17.20
2023-05-16T09:52:46.209Z,17.20
2023-05-16T09:55:32.101Z,17.20
2023-05-16T09:58:18.456Z,17.20
2023-05-16T10:01:04.201Z,17.20
2023-05-16T10:03:50.969Z,17.20
2023-05-16T10:06:37.603Z,17.30
2023-05-16T10:09:23.479Z,17.40
2023-05-16T10:12:11.313Z,17.50
2023-05-16T10:14:56.945Z,17.60
2023-05-16T10:17:43.276Z,17.60
2023-05-16T10:20:28.671Z,17.70
2023-05-16T10:23:16.413Z,17.80
2023-05-16T10:26:04.170Z,17.90
2023-05-16T10:28:50.796Z,18.10
2023-05-16T10:31:37.484Z,18.10
2023-05-16T10:34:23.416Z,18.30
2023-05-16T10:37:08.907Z,18.30
2023-05-16T10:39:54.760Z,18.40
2023-05-16T10:42:44.295Z,18.50
2023-05-16T10:45:30.398Z,18.50
2023-05-16T10:48:16.210Z,18.50
2023-05-16T10:51:05.411Z,18.50
2023-05-16T10:53:54.739Z,18.60
2023-05-16T10:56:40.286Z,18.60
2023-05-16T10:59:27.096Z,18.70
2023-05-16T11:02:33.840Z,18.80
2023-05-16T11:05:19.598Z,18.80
2023-05-16T11:08:08.933Z,18.80
2023-05-16T11:11:14.387Z,18.80
2023-05-16T11:14:05.626Z,18.90
2023-05-16T11:17:00.211Z,18.80
2023-05-16T11:19:47.470Z,18.70
2023-05-16T11:22:34.326Z,18.60
2023-05-16T11:25:34.903Z,18.60
2023-05-16T11:28:20.680Z,18.70
2023-05-16T11:31:06.651Z,18.70
2023-05-16T11:33:53.868Z,18.80
2023-05-16T11:36:40.725Z,18.70
2023-05-16T11:39:26.562Z,18.70
2023-05-16T11:42:13.388Z,18.70
2023-05-16T11:45:08.163Z,18.60
2023-05-16T11:47:53.604Z,18.60
2023-05-16T11:50:39.337Z,18.50
2023-05-16T11:53:25.084Z,18.40
2023-05-16T11:56:11.274Z,18.40
2023-05-16T11:58:56.837Z,18.60
2023-05-16T12:01:42.579Z,18.80
2023-05-16T12:04:28.523Z,19.10
2023-05-16T12:07:15.086Z,19.20
2023-05-16T12:10:04.471Z,19.30
2023-05-16T12:12:52.588Z,19.50
2023-05-16T12:15:38.233Z,19.60
2023-05-16T12:18:24.365Z,19.80
2023-05-16T12:21:10.161Z,20.00
2023-05-16T12:23:55.782Z,20.20
2023-05-16T12:26:42.495Z,20.40
2023-05-16T12:29:27.958Z,20.50
2023-05-16T12:32:13.629Z,20.50
2023-05-16T12:35:02.180Z,20.40
2023-05-16T12:37:49.396Z,20.40
2023-05-16T12:40:37.181Z,20.40
2023-05-16T12:43:23.215Z,20.30
2023-05-16T12:46:12.691Z,20.20
2023-05-16T12:49:02.816Z,20.30
2023-05-16T12:51:52.399Z,20.40
2023-05-16T12:54:38.229Z,20.60
2023-05-16T12:57:23.652Z,22.00
2023-05-16T13:00:10.443Z,21.10
2023-05-16T13:02:56.396Z,21.30
2023-05-16T13:05:42.274Z,21.40
2023-05-16T13:08:28.775Z,21.50
2023-05-16T13:11:14.487Z,21.60
2023-05-16T13:13:59.850Z,21.70
2023-05-16T13:16:45.479Z,21.70
2023-05-16T13:19:34.671Z,21.80
2023-05-16T13:22:20.209Z,21.90
2023-05-16T13:25:06.420Z,21.80
2023-05-16T13:27:52.048Z,21.80
2023-05-16T13:30:37.704Z,22.00
2023-05-16T13:33:24.720Z,22.30
2023-05-16T13:36:10.272Z,22.50
2023-05-16T13:38:55.679Z,22.70
2023-05-16T13:41:42.246Z,22.90
2023-05-16T13:44:27.798Z,23.10
2023-05-16T13:47:13.331Z,23.20
2023-05-16T13:50:01.099Z,23.30
2023-05-16T13:52:48.056Z,23.20
2023-05-16T13:55:33.896Z,23.00
2023-05-16T13:58:19.540Z,22.80
2023-05-16T14:01:05.562Z,22.50
2023-05-16T14:03:51.256Z,22.20
2023-05-16T14:06:37.296Z,22.00
2023-05-16T14:09:22.959Z,21.90
2023-05-16T14:12:08.735Z,22.00
2023-05-16T14:14:54.839Z,22.20
2023-05-16T14:17:40.201Z,22.40
2023-05-16T14:20:25.808Z,22.70
2023-05-16T14:23:11.405Z,23.00
2023-05-16T14:25:57.091Z,23.10
2023-05-16T14:28:42.706Z,23.10
2023-05-16T14:31:28.308Z,22.90
2023-05-16T14:34:14.120Z,22.60
2023-05-16T14:36:59.979Z,22.40
2023-05-16T14:39:46.604Z,22.10
2023-05-16T14:42:32.309Z,21.90
2023-05-16T14:45:17.640Z,21.60
2023-05-16T14:48:03.874Z,21.40
2023-05-16T14:50:50.025Z,21.30
2023-05-16T14:53:35.557Z,21.20
2023-05-16T14:56:22.019Z,21.30
2023-05-16T14:59:07.516Z,21.50
2023-05-16T15:01:53.327Z,21.80
2023-05-16T15:04:39.034Z,22.20
2023-05-16T15:07:25.060Z,22.60
2023-05-16T15:10:10.959Z,23.00
2023-05-16T15:12:56.285Z,23.20
2023-05-16T15:15:42.226Z,23.30
2023-05-16T15:18:27.675Z,23.20
2023-05-16T15:21:13.217Z,22.90
2023-05-16T15:23:59.048Z,22.60
2023-05-16T15:26:44.569Z,22.40
2023-05-16T15:29:30.231Z,22.00
2023-05-16T15:32:17.993Z,21.70
2023-05-16T15:35:03.978Z,21.50
2023-05-16T15:37:49.606Z,21.40
2023-05-16T15:40:35.367Z,21.40
2023-05-16T15:43:20.828Z,21.20
2023-05-16T15:46:08.051Z,21.20
2023-05-16T15:48:53.588Z,21.10
2023-05-16T15:51:38.911Z,21.00
2023-05-16T15:54:24.790Z,21.10
2023-05-16T15:57:10.176Z,21.30
2023-05-16T15:59:55.965Z,21.50
2023-05-16T16:02:43.119Z,21.60
2023-05-16T16:05:28.632Z,21.60
2023-05-16T16:08:14.842Z,21.60
2023-05-16T16:11:00.599Z,21.50
2023-05-16T16:13:46.120Z,21.40
2023-05-16T16:16:31.718Z,21.30
2023-05-16T16:19:17.785Z,21.30
2023-05-16T16:22:03.464Z,21.30
2023-05-16T16:24:48.719Z,21.10
2023-05-16T16:27:34.209Z,21.10
2023-05-16T16:30:19.908Z,20.90
2023-05-16T16:33:05.580Z,20.80
2023-05-16T16:35:52.062Z,20.70
2023-05-16T16:38:37.634Z,20.60
2023-05-16T16:41:24.517Z,20.50
2023-05-16T16:44:10.081Z,20.50
2023-05-16T16:46:56.003Z,20.40
2023-05-16T16:49:41.974Z,20.30
2023-05-16T16:52:27.748Z,20.20
2023-05-16T16:55:14.868Z,20.20
2023-05-16T16:58:01.460Z,20.20
2023-05-16T17:00:47.766Z,20.10
2023-05-16T17:03:33.085Z,20.10
2023-05-16T17:06:19.118Z,20.00
2023-05-16T17:09:05.179Z,20.00
2023-05-16T17:11:50.760Z,19.80
2023-05-16T17:14:36.552Z,19.80
2023-05-16T17:17:23.741Z,19.70
2023-05-16T17:20:10.127Z,19.70
2023-05-16T17:22:55.848Z,19.70
2023-05-16T17:25:42.065Z,19.60
2023-05-16T17:28:27.548Z,19.40
2023-05-16T17:31:13.205Z,19.40
2023-05-16T17:33:58.862Z,19.30
2023-05-16T17:36:44.475Z,19.20
2023-05-16T17:39:30.053Z,19.10
2023-05-16T17:42:15.731Z,19.00
2023-05-16T17:45:04.213Z,18.90
2023-05-16T17:47:49.969Z,18.80
2023-05-16T17:50:35.476Z,18.80
2023-05-16T17:53:20.960Z,18.60
2023-05-16T17:56:06.346Z,18.70
2023-05-16T17:58:53.326Z,18.70
2023-05-16T18:01:39.154Z,18.50
2023-05-16T18:04:26.109Z,18.40
2023-05-16T18:07:12.169Z,18.30
2023-05-16T18:09:58.012Z,18.20
2023-05-16T18:12:43.867Z,18.30
2023-05-16T18:15:29.666Z,18.10
2023-05-16T18:18:15.142Z,18.10
2023-05-16T18:21:00.799Z,18.00
2023-05-16T18:23:46.405Z,18.00
2023-05-16T18:26:31.953Z,18.00
2023-05-16T18:29:17.600Z,17.90
2023-05-16T18:32:02.892Z,17.80
2023-05-16T18:34:48.575Z,17.60
2023-05-16T18:37:34.047Z,17.70
2023-05-16T18:40:19.617Z,17.50
2023-05-16T18:43:05.285Z,17.40
2023-05-16T18:45:51.051Z,17.20
2023-05-16T18:48:36.780Z,17.10
2023-05-16T18:51:22.296Z,17.00
2023-05-16T18:54:08.103Z,16.90
2023-05-16T18:56:53.733Z,16.80
2023-05-16T18:59:39.745Z,16.80
2023-05-16T19:02:37.964Z,16.70
2023-05-16T19:05:27.524Z,16.60
2023-05-16T19:08:13.471Z,16.50
2023-05-16T19:10:59.110Z,16.50
2023-05-16T19:13:45.460Z,16.50
2023-05-16T19:16:30.951Z,16.50
2023-05-16T19:19:16.590Z,16.30
2023-05-16T19:22:02.307Z,16.20
2023-05-16T19:24:47.978Z,16.20
2023-05-16T19:27:33.508Z,16.20
2023-05-16T19:30:19.298Z,16.20
2023-05-16T19:33:04.691Z,16.20
2023-05-16T19:35:52.836Z,16.20
2023-05-16T19:38:38.318Z,16.10
2023-05-16T19:41:24.704Z,16.00
2023-05-16T19:44:10.119Z,15.90
2023-05-16T19:46:56.028Z,16.00
2023-05-16T19:49:41.457Z,16.00
2023-05-16T19:52:27.099Z,16.00
2023-05-16T19:55:12.602Z,15.90
2023-05-16T19:57:58.279Z,15.90
2023-05-16T20:00:43.826Z,15.80
2023-05-16T20:03:29.695Z,15.80
2023-05-16T20:06:15.490Z,15.80
2023-05-16T20:09:01.019Z,15.50
2023-05-16T20:11:46.751Z,15.50
2023-05-16T20:14:32.158Z,15.40
2023-05-16T20:17:17.358Z,15.40
2023-05-16T20:20:03.906Z,15.40
2023-05-16T20:22:49.338Z,15.40
2023-05-16T20:25:35.444Z,15.40
2023-05-16T20:28:21.081Z,15.50
2023-05-16T20:31:06.800Z,15.40
2023-05-16T20:33:52.371Z,15.20
2023-05-16T20:36:37.853Z,15.20
2023-05-16T20:39:23.514Z,15.10
2023-05-16T20:42:12.847Z,15.10
2023-05-16T20:44:58.309Z,15.10
2023-05-16T20:47:44.084Z,15.00
2023-05-16T20:50:31.110Z,15.00
2023-05-16T20:53:16.444Z,15.10
2023-05-16T20:56:02.169Z,15.10
2023-05-16T20:58:47.877Z,15.00
2023-05-16T21:01:33.478Z,15.00
2023-05-16T21:04:19.433Z,15.00
2023-05-16T21:07:07.495Z,14.90
2023-05-16T21:09:53.653Z,14.90
2023-05-16T21:12:39.341Z,15.00
2023-05-16T21:15:25.265Z,14.90
2023-05-16T21:18:11.034Z,14.90
2023-05-16T21:20:56.893Z,14.80
2023-05-16T21:23:42.516Z,14.70
2023-05-16T21:26:28.071Z,14.60
2023-05-16T21:29:13.763Z,14.60
2023-05-16T21:31:59.280Z,14.60
2023-05-16T21:34:45.037Z,14.50
2023-05-16T21:37:30.657Z,14.40
2023-05-16T21:40:19.152Z,14.40
2023-05-16T21:43:04.483Z,14.50
2023-05-16T21:45:49.830Z,14.40
2023-05-16T21:48:35.888Z,14.50
2023-05-16T21:51:21.514Z,14.20
2023-05-16T21:54:07.120Z,14.30
2023-05-16T21:56:52.998Z,14.30
2023-05-16T21:59:38.636Z,14.30
2023-05-16T22:02:24.369Z,14.20
2023-05-16T22:05:10.202Z,14.20
2023-05-16T22:07:55.844Z,14.10
2023-05-16T22:10:44.162Z,14.20
2023-05-16T22:13:29.424Z,14.10
2023-05-16T22:16:15.315Z,14.10
2023-05-16T22:19:01.207Z,14.00
2023-05-16T22:21:46.967Z,13.90
2023-05-16T22:24:32.534Z,13.80
2023-05-16T22:27:18.316Z,13.80
2023-05-16T22:30:04.083Z,13.70
2023-05-16T22:32:49.684Z,13.70
2023-05-16T22:35:35.086Z,13.60
2023-05-16T22:38:20.706Z,13.70
2023-05-16T22:41:06.387Z,13.70
2023-05-16T22:43:51.946Z,13.80
2023-05-16T22:46:37.546Z,13.70
2023-05-16T22:49:23.217Z,13.80
2023-05-16T22:52:08.922Z,13.70
2023-05-16T22:54:54.614Z,13.70
2023-05-16T22:57:40.340Z,13.70
2023-05-16T23:00:25.798Z,13.60
2023-05-16T23:03:11.378Z,13.50
2023-05-16T23:05:57.038Z,13.50
2023-05-16T23:08:42.724Z,13.40
2023-05-16T23:11:28.321Z,13.50
2023-05-16T23:14:14.123Z,13.50
2023-05-16T23:16:59.721Z,13.50
2023-05-16T23:19:45.527Z,13.40
2023-05-16T23:22:31.124Z,13.40
2023-05-16T23:25:16.731Z,13.50
2023-05-16T23:28:02.569Z,13.40
2023-05-16T23:30:48.205Z,13.20
2023-05-16T23:33:34.031Z,13.20
2023-05-16T23:36:19.236Z,13.20
2023-05-16T23:39:04.890Z,13.30
2023-05-16T23:41:50.762Z,13.20
2023-05-16T23:44:36.137Z,13.30
2023-05-16T23:47:22.468Z,13.20
2023-05-16T23:50:08.116Z,13.00
2023-05-16T23:52:53.396Z,13.00
2023-05-16T23:55:39.272Z,13.00
2023-05-16T23:58:24.831Z,13.00
